createdAt,value
2022-10-09T00:01:02.182Z,101505.53
2022-10-09T00:03:28.993Z,101512.28
2022-10-09T00:05:55.807Z,101508.28
2022-10-09T00:08:22.551Z,101514.84
2022-10-09T00:10:49.874Z,101513.16
2022-10-09T00:13:16.674Z,101521.47
2022-10-09T00:15:45.024Z,101521.84
2022-10-09T00:18:13.574Z,101528.78
2022-10-09T00:20:42.419Z,101527.00
2022-10-09T00:23:09.839Z,101527.84
2022-10-09T00:25:36.886Z,101529.59
2022-10-09T00:28:04.964Z,101526.84
2022-10-09T00:30:31.896Z,101537.78
2022-10-09T00:32:58.651Z,101539.69
2022-10-09T00:35:25.460Z,101536.47
2022-10-09T00:37:52.171Z,101536.47
2022-10-09T00:40:19.020Z,101552.16
2022-10-09T00:42:45.973Z,101552.97
2022-10-09T00:45:20.256Z,101549.22
2022-10-09T00:47:50.360Z,101557.16
2022-10-09T00:50:23.227Z,101559.34
2022-10-09T00:52:53.685Z,101558.91
2022-10-09T00:55:22.391Z,101564.00
2022-10-09T00:57:50.453Z,101553.13
2022-10-09T01:00:17.593Z,101556.47
2022-10-09T01:02:44.381Z,101563.50
2022-10-09T01:05:11.474Z,101565.50
2022-10-09T01:07:48.631Z,101559.50
2022-10-09T01:10:33.101Z,101567.94
2022-10-09T01:13:07.731Z,101556.75
2022-10-09T01:15:55.251Z,101570.16
2022-10-09T01:18:38.748Z,101575.78
2022-10-09T01:21:16.313Z,101574.81
2022-10-09T01:24:06.925Z,101578.09
2022-10-09T01:26:52.621Z,101578.03
2022-10-09T01:29:20.635Z,101585.13
2022-10-09T01:31:49.405Z,101587.50
2022-10-09T01:34:18.410Z,101579.91
2022-10-09T01:36:45.438Z,101584.81
2022-10-09T01:39:17.404Z,101589.78
2022-10-09T01:41:45.569Z,101581.66
2022-10-09T01:44:24.109Z,101586.16
2022-10-09T01:46:50.833Z,101596.03
2022-10-09T01:49:33.279Z,101583.31
2022-10-09T01:52:14.596Z,101587.78
2022-10-09T01:54:56.970Z,101585.47
2022-10-09T01:57:29.713Z,101593.47
2022-10-09T01:59:58.173Z,101598.59
2022-10-09T02:02:25.663Z,101603.06
2022-10-09T02:04:53.424Z,101603.13
2022-10-09T02:07:20.465Z,101595.31
2022-10-09T02:09:47.198Z,101606.16
2022-10-09T02:12:14.680Z,101605.97
2022-10-09T02:14:41.622Z,101607.25
2022-10-09T02:17:20.066Z,101615.31
2022-10-09T02:20:10.428Z,101610.03
2022-10-09T02:22:37.245Z,101615.50
2022-10-09T02:25:06.468Z,101614.59
2022-10-09T02:27:33.910Z,101611.16
2022-10-09T02:30:01.147Z,101613.97
2022-10-09T02:32:28.629Z,101619.94
2022-10-09T02:34:55.417Z,101616.84
2022-10-09T02:37:22.091Z,101618.78
2022-10-09T02:39:49.310Z,101624.94
2022-10-09T02:42:16.090Z,101620.72
2022-10-09T02:44:42.907Z,101623.00
2022-10-09T02:47:09.712Z,101626.72
2022-10-09T02:49:36.436Z,101620.84
2022-10-09T02:52:03.181Z,101619.69
2022-10-09T02:54:29.966Z,101627.38
2022-10-09T02:56:56.717Z,101629.13
2022-10-09T02:59:23.501Z,101621.00
2022-10-09T03:01:50.454Z,101628.50
2022-10-09T03:04:17.265Z,101625.84
2022-10-09T03:06:44.023Z,101628.03
2022-10-09T03:09:10.803Z,101630.41
2022-10-09T03:11:37.539Z,101645.63
2022-10-09T03:14:06.954Z,101637.69
2022-10-09T03:16:33.815Z,101648.09
2022-10-09T03:19:00.636Z,101637.88
2022-10-09T03:21:28.117Z,101641.78
2022-10-09T03:23:55.278Z,101643.84
2022-10-09T03:26:25.045Z,101639.03
2022-10-09T03:28:53.218Z,101641.38
2022-10-09T03:31:46.979Z,101646.72
2022-10-09T03:34:11.167Z,101641.44
2022-10-09T03:36:37.884Z,101649.56
2022-10-09T03:39:04.664Z,101653.13
2022-10-09T03:41:31.405Z,101655.66
2022-10-09T03:43:58.149Z,101654.22
2022-10-09T03:46:25.027Z,101655.50
2022-10-09T03:48:51.832Z,101660.94
2022-10-09T03:51:18.576Z,101651.50
2022-10-09T03:53:45.365Z,101659.84
2022-10-09T03:56:12.144Z,101650.03
2022-10-09T03:58:38.881Z,101658.06
2022-10-09T04:01:05.762Z,101664.38
2022-10-09T04:03:32.688Z,101667.41
2022-10-09T04:05:59.449Z,101671.31
2022-10-09T04:08:26.607Z,101667.03
2022-10-09T04:10:58.715Z,101675.91
2022-10-09T04:13:25.841Z,101677.94
2022-10-09T04:15:53.598Z,101674.78
2022-10-09T04:18:20.398Z,101671.34
2022-10-09T04:20:55.286Z,101677.00
2022-10-09T04:23:24.564Z,101670.69
2022-10-09T04:25:55.328Z,101675.28
2022-10-09T04:28:23.676Z,101685.44
2022-10-09T04:30:50.652Z,101681.00
2022-10-09T04:33:17.519Z,101689.16
2022-10-09T04:35:45.527Z,101694.09
2022-10-09T04:38:12.712Z,101695.53
2022-10-09T04:40:39.478Z,101698.31
2022-10-09T04:43:06.502Z,101696.66
2022-10-09T04:45:33.440Z,101686.31
2022-10-09T04:48:00.291Z,101684.38
2022-10-09T04:50:27.072Z,101685.84
2022-10-09T04:52:59.739Z,101692.16
2022-10-09T04:55:26.694Z,101689.78
2022-10-09T04:57:53.496Z,101697.13
2022-10-09T05:00:20.398Z,101692.78
2022-10-09T05:02:47.533Z,101696.88
2022-10-09T05:05:25.699Z,101699.94
2022-10-09T05:07:52.498Z,101706.53
2022-10-09T05:10:19.227Z,101702.88
2022-10-09T05:12:46.155Z,101696.81
2022-10-09T05:15:13.475Z,101713.69
2022-10-09T05:17:40.329Z,101713.66
2022-10-09T05:20:07.363Z,101717.00
2022-10-09T05:22:34.175Z,101719.75
2022-10-09T05:25:01.047Z,101711.63
2022-10-09T05:27:27.781Z,101721.56
2022-10-09T05:29:54.482Z,101722.69
2022-10-09T05:32:21.961Z,101718.22
2022-10-09T05:34:48.792Z,101731.69
2022-10-09T05:37:15.558Z,101717.31
2022-10-09T05:39:42.417Z,101718.19
2022-10-09T05:42:09.205Z,101721.88
2022-10-09T05:44:35.938Z,101728.50
2022-10-09T05:47:02.628Z,101732.78
2022-10-09T05:49:29.308Z,101725.44
2022-10-09T05:51:56.132Z,101730.94
2022-10-09T05:54:22.915Z,101738.31
2022-10-09T05:56:52.955Z,101736.19
2022-10-09T05:59:20.131Z,101739.03
2022-10-09T06:01:51.334Z,101741.50
2022-10-09T06:04:20.508Z,101752.50
2022-10-09T06:06:48.673Z,101751.72
2022-10-09T06:09:18.072Z,101751.84
2022-10-09T06:11:44.895Z,101752.84
2022-10-09T06:14:13.579Z,101759.00
2022-10-09T06:16:42.324Z,101758.28
2022-10-09T06:19:12.683Z,101761.44
2022-10-09T06:21:39.546Z,101766.84
2022-10-09T06:24:07.261Z,101768.00
2022-10-09T06:26:36.376Z,101763.13
2022-10-09T06:29:03.878Z,101775.56
2022-10-09T06:31:32.598Z,101783.28
2022-10-09T06:34:01.451Z,101781.31
2022-10-09T06:36:30.451Z,101780.69
2022-10-09T06:38:59.662Z,101775.22
2022-10-09T06:41:27.676Z,101785.38
2022-10-09T06:43:59.616Z,101785.00
2022-10-09T06:46:31.770Z,101792.75
2022-10-09T06:49:00.212Z,101794.56
2022-10-09T06:51:33.904Z,101799.06
2022-10-09T06:54:07.463Z,101797.91
2022-10-09T06:56:34.229Z,101797.97
2022-10-09T06:59:02.666Z,101802.84
2022-10-09T07:01:32.308Z,101793.94
2022-10-09T07:04:07.410Z,101805.06
2022-10-09T07:06:38.116Z,101809.34
2022-10-09T07:09:06.899Z,101813.34
2022-10-09T07:11:36.109Z,101813.88
2022-10-09T07:14:08.601Z,101809.13
2022-10-09T07:16:40.838Z,101812.44
2022-10-09T07:19:11.521Z,101812.34
2022-10-09T07:24:25.606Z,101824.28
2022-10-09T07:26:55.515Z,101821.91
2022-10-09T07:29:23.326Z,101827.22
2022-10-09T07:31:52.210Z,101827.63
2022-10-09T07:34:19.094Z,101824.16
2022-10-09T07:36:45.820Z,101828.53
2022-10-09T07:39:12.603Z,101825.59
2022-10-09T07:41:40.060Z,101827.75
2022-10-09T07:44:06.851Z,101829.50
2022-10-09T07:46:34.291Z,101833.59
2022-10-09T07:49:02.092Z,101830.81
2022-10-09T07:51:29.694Z,101832.13
2022-10-09T07:53:57.478Z,101841.16
2022-10-09T07:56:32.468Z,101845.66
2022-10-09T07:59:07.625Z,101840.06
2022-10-09T08:01:35.511Z,101845.28
2022-10-09T08:04:03.145Z,101842.06
2022-10-09T08:06:30.307Z,101845.22
2022-10-09T08:08:58.470Z,101839.72
2022-10-09T08:11:26.917Z,101845.38
2022-10-09T08:13:54.134Z,101836.94
2022-10-09T08:16:25.164Z,101847.56
2022-10-09T08:19:00.137Z,101845.72
2022-10-09T08:21:28.698Z,101852.94
2022-10-09T08:23:57.497Z,101848.94
2022-10-09T08:26:25.472Z,101851.09
2022-10-09T08:28:54.469Z,101859.50
2022-10-09T08:31:22.715Z,101867.69
2022-10-09T08:33:53.984Z,101862.13
2022-10-09T08:37:14.781Z,101869.81
2022-10-09T08:39:41.891Z,101858.91
2022-10-09T08:42:19.769Z,101868.41
2022-10-09T08:44:49.261Z,101852.94
2022-10-09T08:47:26.398Z,101852.78
2022-10-09T08:50:13.361Z,101860.00
2022-10-09T08:53:05.369Z,101865.75
2022-10-09T08:55:45.923Z,101858.59
2022-10-09T08:58:23.784Z,101858.59
2022-10-09T09:00:56.615Z,101861.09
2022-10-09T09:03:42.548Z,101867.47
2022-10-09T09:06:20.124Z,101862.03
2022-10-09T09:09:01.256Z,101861.03
2022-10-09T09:11:37.976Z,101863.81
2022-10-09T09:14:29.033Z,101863.47
2022-10-09T09:17:29.913Z,101866.63
2022-10-09T09:20:14.864Z,101861.75
2022-10-09T09:22:46.265Z,101864.75
2022-10-09T09:25:25.185Z,101861.44
2022-10-09T09:27:59.369Z,101859.34
2022-10-09T09:30:38.262Z,101854.00
2022-10-09T09:37:16.648Z,101853.25
2022-10-09T09:40:44.369Z,101856.41
2022-10-09T09:51:28.451Z,101848.63
2022-10-09T09:54:41.532Z,101853.56
2022-10-09T09:57:15.949Z,101850.00
2022-10-09T09:59:44.284Z,101848.03
2022-10-09T10:02:20.524Z,101842.03
2022-10-09T10:05:23.948Z,101845.47
2022-10-09T10:07:51.650Z,101837.59
2022-10-09T10:10:25.626Z,101838.28
2022-10-09T10:13:41.444Z,101836.56
2022-10-09T10:28:24.246Z,101817.75
2022-10-09T10:30:52.256Z,101818.63
2022-10-09T10:33:25.586Z,101826.06
2022-10-09T10:36:00.006Z,101827.50
2022-10-09T10:38:34.271Z,101831.47
2022-10-09T10:41:36.468Z,101833.47
2022-10-09T10:44:53.680Z,101830.25
2022-10-09T10:47:28.867Z,101827.50
2022-10-09T10:50:15.740Z,101827.81
2022-10-09T10:53:59.744Z,101827.72
2022-10-09T10:56:41.957Z,101819.50
2022-10-09T10:59:35.681Z,101817.47
2022-10-09T11:02:24.635Z,101817.63
2022-10-09T11:05:01.665Z,101813.03
2022-10-09T11:07:59.922Z,101812.38
2022-10-09T11:10:33.100Z,101812.22
2022-10-09T11:13:15.442Z,101808.16
2022-10-09T11:15:54.335Z,101797.88
2022-10-09T11:18:30.178Z,101793.56
2022-10-09T11:21:02.904Z,101797.06
2022-10-09T11:24:03.075Z,101795.00
2022-10-09T11:27:09.292Z,101782.72
2022-10-09T11:29:37.790Z,101781.41
2022-10-09T11:32:16.496Z,101785.81
2022-10-09T11:34:48.882Z,101777.22
2022-10-09T11:37:22.943Z,101781.69
2022-10-09T11:39:49.846Z,101772.66
2022-10-09T11:42:23.218Z,101773.06
2022-10-09T11:45:07.999Z,101762.63
2022-10-09T11:47:46.931Z,101757.38
2022-10-09T11:50:30.496Z,101769.63
2022-10-09T11:53:11.728Z,101762.16
2022-10-09T11:55:38.822Z,101763.69
2022-10-09T11:58:25.315Z,101749.81
2022-10-09T12:00:54.831Z,101748.50
2022-10-09T12:03:42.100Z,101730.34
2022-10-09T12:06:13.718Z,101737.22
2022-10-09T12:09:02.145Z,101732.41
2022-10-09T12:11:32.780Z,101739.38
2022-10-09T12:14:09.739Z,101736.06
2022-10-09T12:16:45.844Z,101737.25
2022-10-09T12:19:17.679Z,101738.91
2022-10-09T12:21:47.758Z,101738.34
2022-10-09T12:24:18.218Z,101739.16
2022-10-09T12:26:46.205Z,101739.34
2022-10-09T12:29:25.504Z,101730.25
2022-10-09T12:31:56.215Z,101722.84
2022-10-09T12:34:31.174Z,101724.97
2022-10-09T12:37:10.747Z,101724.81
2022-10-09T12:39:47.320Z,101718.88
2022-10-09T12:42:23.603Z,101701.06
2022-10-09T12:44:55.156Z,101710.41
2022-10-09T12:47:28.162Z,101701.38
2022-10-09T12:50:20.375Z,101697.69
2022-10-09T12:52:55.414Z,101689.16
2022-10-09T12:55:40.586Z,101689.44
2022-10-09T12:58:12.322Z,101680.50
2022-10-09T13:00:42.398Z,101682.97
2022-10-09T13:03:24.120Z,101683.44
2022-10-09T13:05:51.777Z,101685.28
2022-10-09T13:08:24.479Z,101675.19
2022-10-09T13:10:51.481Z,101672.50
2022-10-09T13:13:21.734Z,101676.97
2022-10-09T13:16:02.734Z,101681.63
2022-10-09T13:18:29.664Z,101672.66
2022-10-09T13:21:03.486Z,101684.59
2022-10-09T13:23:34.319Z,101675.00
2022-10-09T13:26:45.077Z,101670.84
2022-10-09T13:29:18.858Z,101659.56
2022-10-09T13:31:45.683Z,101668.50
2022-10-09T13:34:13.451Z,101661.47
2022-10-09T13:36:40.588Z,101667.94
2022-10-09T13:39:09.342Z,101661.50
2022-10-09T13:41:36.871Z,101661.00
2022-10-09T13:44:03.577Z,101659.94
2022-10-09T13:46:30.279Z,101656.25
2022-10-09T13:48:56.989Z,101662.72
2022-10-09T13:51:23.720Z,101662.50
2022-10-09T13:53:50.593Z,101656.81
2022-10-09T13:56:17.235Z,101649.59
2022-10-09T13:58:43.962Z,101658.88
2022-10-09T14:01:10.875Z,101661.19
2022-10-09T14:03:37.561Z,101661.31
2022-10-09T14:06:04.521Z,101658.47
2022-10-09T14:12:40.621Z,101644.50
2022-10-09T14:15:13.009Z,101645.22
2022-10-09T14:17:46.962Z,101634.16
2022-10-09T14:20:20.218Z,101636.75
2022-10-09T14:22:51.173Z,101628.44
2022-10-09T14:25:20.624Z,101634.53
2022-10-09T14:27:49.859Z,101628.31
2022-10-09T14:30:17.916Z,101630.19
2022-10-09T14:32:45.132Z,101623.06
2022-10-09T14:35:17.108Z,101631.09
2022-10-09T14:37:49.793Z,101627.47
2022-10-09T14:40:17.412Z,101621.50
2022-10-09T14:42:44.549Z,101619.91
2022-10-09T14:45:11.875Z,101613.75
2022-10-09T14:47:48.456Z,101622.75
2022-10-09T14:50:18.137Z,101609.78
2022-10-09T14:52:51.150Z,101616.09
2022-10-09T14:55:21.813Z,101614.81
2022-10-09T14:57:53.945Z,101617.78
2022-10-09T15:00:26.707Z,101612.78
2022-10-09T15:10:06.133Z,101616.22
2022-10-09T15:12:32.771Z,101604.31
2022-10-09T15:14:59.412Z,101609.09
2022-10-09T15:17:26.042Z,101607.84
2022-10-09T15:19:54.128Z,101599.84
2022-10-09T15:22:20.788Z,101593.53
2022-10-09T15:24:48.010Z,101586.41
2022-10-09T15:27:14.752Z,101586.84
2022-10-09T15:29:41.449Z,101582.53
2022-10-09T15:32:08.151Z,101587.97
2022-10-09T15:34:36.574Z,101588.53
2022-10-09T15:37:06.819Z,101591.25
2022-10-09T15:39:33.592Z,101587.56
2022-10-09T15:42:00.289Z,101597.56
2022-10-09T15:44:26.993Z,101588.47
2022-10-09T15:46:53.856Z,101590.66
2022-10-09T15:49:20.660Z,101588.19
2022-10-09T15:51:47.331Z,101593.38
2022-10-09T15:54:15.416Z,101595.34
2022-10-09T15:56:42.503Z,101584.34
2022-10-09T15:59:13.462Z,101592.66
2022-10-09T16:01:40.261Z,101592.81
2022-10-09T16:04:07.004Z,101594.03
2022-10-09T16:06:33.764Z,101594.06
2022-10-09T16:09:01.432Z,101595.25
2022-10-09T16:11:28.263Z,101588.06
2022-10-09T16:13:55.671Z,101597.81
2022-10-09T16:16:24.625Z,101587.41
2022-10-09T16:18:51.736Z,101584.81
2022-10-09T16:21:23.848Z,101591.03
2022-10-09T16:23:54.466Z,101593.09
2022-10-09T16:26:24.213Z,101590.03
2022-10-09T16:28:52.487Z,101591.22
2022-10-09T16:31:24.532Z,101594.34
2022-10-09T16:33:51.671Z,101585.50
2022-10-09T16:36:18.645Z,101598.75
2022-10-09T16:38:46.158Z,101597.41
2022-10-09T16:41:17.909Z,101594.25
2022-10-09T16:43:46.310Z,101592.47
2022-10-09T16:46:39.327Z,101590.16
2022-10-09T16:49:06.216Z,101589.69
2022-10-09T16:51:35.551Z,101593.13
2022-10-09T16:54:04.394Z,101588.50
2022-10-09T16:56:34.907Z,101587.38
2022-10-09T16:59:04.224Z,101580.00
2022-10-09T17:01:32.295Z,101582.47
2022-10-09T17:04:00.911Z,101584.78
2022-10-09T17:06:27.950Z,101588.09
2022-10-09T17:08:57.626Z,101584.66
2022-10-09T17:11:25.802Z,101587.69
2022-10-09T17:13:53.837Z,101580.03
2022-10-09T17:16:21.711Z,101575.19
2022-10-09T17:18:49.145Z,101576.13
2022-10-09T17:21:17.665Z,101574.22
2022-10-09T17:23:44.981Z,101573.38
2022-10-09T17:26:15.109Z,101573.81
2022-10-09T17:28:42.512Z,101569.09
2022-10-09T17:31:11.830Z,101576.06
2022-10-09T17:33:43.025Z,101579.06
2022-10-09T17:36:10.077Z,101579.44
2022-10-09T17:38:37.082Z,101581.50
2022-10-09T17:41:05.470Z,101577.34
2022-10-09T17:43:32.206Z,101584.41
2022-10-09T17:45:59.123Z,101588.50
2022-10-09T17:48:25.833Z,101576.66
2022-10-09T17:50:53.809Z,101585.41
2022-10-09T17:53:22.847Z,101587.47
2022-10-09T17:55:50.635Z,101574.41
2022-10-09T17:58:18.285Z,101579.22
2022-10-09T18:00:45.296Z,101573.19
2022-10-09T18:03:12.230Z,101572.66
2022-10-09T18:05:47.463Z,101570.09
2022-10-09T18:08:15.475Z,101571.94
2022-10-09T18:10:42.286Z,101579.72
2022-10-09T18:13:10.901Z,101562.84
2022-10-09T18:15:39.002Z,101570.09
2022-10-09T18:18:06.504Z,101563.84
2022-10-09T18:20:37.591Z,101564.84
2022-10-09T18:23:04.556Z,101570.34
2022-10-09T18:25:31.345Z,101557.97
2022-10-09T18:27:58.677Z,101556.47
2022-10-09T18:30:25.628Z,101551.19
2022-10-09T18:32:52.629Z,101559.00
2022-10-09T18:35:19.488Z,101554.03
2022-10-09T18:37:46.166Z,101555.66
2022-10-09T18:40:14.147Z,101555.44
2022-10-09T22:23:35.808Z,101426.91
2022-10-09T22:26:08.027Z,101412.34
2022-10-09T22:28:53.097Z,101420.03
2022-10-09T22:31:29.543Z,101424.19
2022-10-09T22:34:07.536Z,101408.41
2022-10-09T22:37:01.147Z,101414.56
2022-10-09T22:39:44.228Z,101408.41
2022-10-09T22:42:11.212Z,101405.81
2022-10-09T22:44:38.086Z,101398.78
2022-10-09T22:47:05.087Z,101406.38
2022-10-09T22:49:34.688Z,101406.69
2022-10-09T22:52:04.453Z,101404.81
2022-10-09T22:54:31.533Z,101395.34
2022-10-09T22:57:09.756Z,101396.28
2022-10-09T22:59:41.601Z,101390.28
2022-10-09T23:02:20.002Z,101383.78
2022-10-09T23:05:27.987Z,101389.25
2022-10-09T23:08:18.559Z,101392.53
2022-10-09T23:10:45.521Z,101378.75
2022-10-09T23:13:30.048Z,101369.84
2022-10-09T23:16:00.233Z,101365.53
2022-10-09T23:18:29.130Z,101368.19
2022-10-09T23:20:56.315Z,101360.78
2022-10-09T23:23:36.060Z,101371.03
2022-10-09T23:26:24.407Z,101352.75
2022-10-09T23:28:56.469Z,101354.41
2022-10-09T23:31:31.575Z,101350.91
2022-10-09T23:34:01.358Z,101355.41
2022-10-09T23:36:32.080Z,101344.88
2022-10-09T23:39:00.460Z,101355.34
2022-10-09T23:41:30.765Z,101352.75
2022-10-09T23:44:00.388Z,101353.91
2022-10-09T23:46:31.501Z,101346.03
2022-10-09T23:48:58.665Z,101345.88
2022-10-09T23:51:30.452Z,101347.75
2022-10-09T23:54:05.698Z,101338.06
2022-10-09T23:56:36.756Z,101345.13
2022-10-09T23:59:10.477Z,101346.59
